Back to Top

Current Local METAR Station Weather Reports...

Local METAR Reports

Local METAR Reports

 

EGNJ - Humberside, United Kingdom
Distance from station: ESE 12mi, 20km
Updated: Thu, 02-Apr-2020 12:20pm BST
Mostly Cloudy
Mostly Cloudy
 Wind from WSW
Wind: WSW 22 mph , 35 km/h
Temperature: 12°C
Dew Point: 7°C
Humidity: 72%
Barometer: 1010 hPa
Clouds: Mostly Cloudy
Visibility: 6 miles , 10 km
Cloud details: Partly Cloudy 610 m
Mostly Cloudy 823 m
2020/04/02 11:20 EGNJ 021120Z 25019KT 9999 SCT020 BKN027 12/07 Q1010
EGXV - Leconfield (aut), United Kingdom
Distance from station: NNE 16mi, 26km
Updated: Thu, 02-Apr-2020 11:50am BST
Partly Cloudy
Partly Cloudy
 Wind from W
Wind: W 22 mph , 35 km/h
Temperature: 12°C
Dew Point: 7°C
Humidity: 72%
Barometer: 1009 hPa
Clouds: Partly Cloudy
Visibility: 6 miles , 10 km
Cloud details: Mostly Cloudy 671 m
Partly Cloudy 1128 m
2020/04/02 10:50 EGXV 021050Z AUTO 27019KT 9999 BKN022/// SCT037/// 12/07 Q1009
 
EGCN - Doncaster Sheffi, United Kingdom
Distance from station: SW 20mi, 32km
Updated: Thu, 02-Apr-2020 12:20pm BST
Overcast
Overcast
 Wind from W
Wind: W 17 mph , 28 km/h
Temperature: 11°C
Dew Point: 7°C
Humidity: 77%
Clouds: Overcast
Visibility: 6 miles , 10 km
Cloud details: Few Clouds 579 m
Partly Cloudy 732 m
Overcast 945 m
2020/04/02 11:20 EGCN 021120Z 26015KT 9999 FEW019 SCT024 OVC031 11/07
EGXP - Scampton Raf, United Kingdom
Distance from station: S 25mi, 39km
Updated: Thu, 02-Apr-2020 11:50am BST
Mostly Cloudy
Mostly Cloudy
 Wind from W
Wind: W 20 mph , 31 km/h
Temperature: 10°C
Wind Chill: 7°C
Dew Point: 5°C
Humidity: 71%
Barometer: 1011 hPa
Clouds: Mostly Cloudy
Visibility: 6 miles , 10 km
Cloud details: Mostly Cloudy 732 m
Mostly Cloudy 1006 m
2020/04/02 10:50 EGXP 021050Z AUTO 27017KT 9999 // BKN024/// BKN033/// 10/05 Q1011
 
EGXW - Waddington Raf, United Kingdom
Distance from station: S 33mi, 53km
Updated: Thu, 02-Apr-2020 11:50am BST
Mostly Cloudy
Mostly Cloudy
 Wind from WSW
Wind: WSW 15 mph , 24 km/h
Temperature: 10°C
Wind Chill: 7°C
Dew Point: 5°C
Humidity: 71%
Barometer: 1012 hPa
Clouds: Mostly Cloudy
Visibility: 6 miles , 10 km
Cloud details: Partly Cloudy 732 m
Mostly Cloudy 975 m
2020/04/02 10:50 EGXW 021050Z 25013KT 9999 SCT024 BKN032 10/05 Q1012 TEMPO 26015G25KT BKN025 RMK WHT TEMPO BLU
EGXS - Donna Nook Raf, United Kingdom
Distance from station: ESE 33mi, 54km
Updated: Thu, 02-Apr-2020 11:50am BST
Mostly Cloudy
Mostly Cloudy
 Wind from WSW
Wind: WSW 17 mph , 28 km/h
Temperature: 11°C
Dew Point: 5°C
Humidity: 67%
Barometer: 1010 hPa
Clouds: Mostly Cloudy
Visibility: 6 miles , 10 km
Cloud details: Mostly Cloudy 853 m
2020/04/02 10:50 EGXS 021050Z AUTO 24015KT 9999 // BKN028/// 11/05 Q1010
 
EGXU - Linton-On-Ouse R, United Kingdom
Distance from station: NW 38mi, 61km
Updated: Thu, 02-Apr-2020 11:50am BST
Partly Cloudy
Partly Cloudy
 Wind from W
Wind: W 18 mph , 30 km/h
Temperature: 11°C
Dew Point: 6°C
Humidity: 72%
Barometer: 1009 hPa
Clouds: Partly Cloudy
Visibility: 6 miles , 10 km
Cloud details: Partly Cloudy 671 m
2020/04/02 10:50 EGXU 021050Z AUTO 27016KT 9999 SCT022/// 11/06 Q1009
EGXC - Coningsby Raf, United Kingdom
Distance from station: SSE 42mi, 68km
Updated: Thu, 02-Apr-2020 11:50am BST
Mostly Cloudy
Mostly Cloudy
 Wind from W
Wind: W 21 mph , 33 km/h
Temperature: 11°C
Dew Point: 6°C
Humidity: 72%
Barometer: 1012 hPa
Clouds: Mostly Cloudy
Visibility: 6 miles , 10 km
Cloud details: Few Clouds 732 m
Mostly Cloudy 1067 m
2020/04/02 10:50 EGXC 021050Z 26018KT 9999 FEW024 BKN035 11/06 Q1012 NOSIG RMK BLU BLU
 
EGYD - Cranwell Raf, United Kingdom
Distance from station: S 43mi, 69km
Updated: Thu, 02-Apr-2020 11:50am BST
Mostly Cloudy
Mostly Cloudy
 Wind from W
Wind: W 23 mph , 37 km/h
Temperature: 10°C
Wind Chill: 6°C
Dew Point: 5°C
Humidity: 71%
Barometer: 1012 hPa
Clouds: Mostly Cloudy
Visibility: 6 miles , 10 km
Cloud details: Mostly Cloudy 640 m
2020/04/02 10:50 EGYD 021050Z AUTO 26020KT 9999 // BKN021/// 10/05 Q1012
EGNM - Leeds And Bradfo, United Kingdom
Distance from station: WNW 44mi, 71km
Updated: Thu, 02-Apr-2020 12:20pm BST
Mostly Cloudy
Mostly Cloudy
 Wind from W
Wind: W 16 mph , 26 km/h
Temperature: 9°C
Wind Chill: 6°C
Dew Point: 6°C
Humidity: 82%
Barometer: 1010 hPa
Clouds: Mostly Cloudy
Visibility: 6 miles , 10 km
Cloud details: Mostly Cloudy 335 m
2020/04/02 11:20 EGNM 021120Z 26014KT 220V290 9999 BKN011 09/06 Q1010
 
EGXZ - Topcliffe Raf, United Kingdom
Distance from station: NW 49mi, 79km
Updated: Thu, 02-Apr-2020 11:50am BST
Mostly Cloudy
Mostly Cloudy
 Wind from W
Wind: W 17 mph , 28 km/h, Gust: 30 mph , 48 km/h
Temperature: 12°C
Dew Point: 6°C
Humidity: 67%
Barometer: 1009 hPa
Clouds: Mostly Cloudy
Visibility: 6 miles , 10 km
Cloud details: Mostly Cloudy 823 m
Mostly Cloudy 1006 m
Mostly Cloudy 1219 m
2020/04/02 10:50 EGXZ 021050Z AUTO 28015G26KT 9999 BKN027/// BKN033/// BKN040/// 12/06 Q1009
EGXE - Leeming Raf, United Kingdom
Distance from station: NW 57mi, 92km
Updated: Thu, 02-Apr-2020 11:50am BST
Partly Cloudy
Partly Cloudy
 Wind from W
Wind: W 20 mph , 31 km/h
Temperature: 11°C
Dew Point: 6°C
Humidity: 72%
Barometer: 1009 hPa
Clouds: Partly Cloudy
Visibility: 6 miles , 10 km
Cloud details: Few Clouds 762 m
Partly Cloudy 7620 m
2020/04/02 10:50 EGXE 021050Z 26017KT 9999 FEW025 SCT250 11/06 Q1009 TEMPO 28020G30KT RMK BLU TEMPO BLU
 
EGYH - Holbeach (aut), United Kingdom
Distance from station: SSE 63mi, 101km
Updated: Thu, 26-Mar-2020 7:50pm GMT
NOT Current
Clear
Clear
 Wind from E
Wind: E 20 mph , 31 km/h
Temperature: 6°C
Wind Chill: 1°C
Dew Point: 2°C
Humidity: 76%
Barometer: 1025 hPa
Summary: Clear
Visibility: greater than 7 miles , 10 km
2020/03/26 19:50 EGYH 261950Z 08017KT CAVOK 06/02 Q1025 RMK BLU
EGNX - East Midlands, United Kingdom
Distance from station: SSW 65mi, 104km
Updated: Thu, 02-Apr-2020 12:20pm BST
Light rain, Showers, Mostly cloudy
Light rain, Showers, Mostly cloudy
 Wind from W
Wind: W 21 mph , 33 km/h
Temperature: 9°C
Wind Chill: 5°C
Dew Point: 6°C
Humidity: 82%
Barometer: 1013 hPa
Summary: Light rain, Showers
Clouds: Mostly Cloudy
Visibility: 5 miles , 8 km
Cloud details: Mostly Cloudy 549 m
2020/04/02 11:20 EGNX 021120Z 27018KT 8000 -SHRA BKN018 09/06 Q1013
 
EGNV - Tees-Side, United Kingdom
Distance from station: NNW 68mi, 109km
Updated: Thu, 02-Apr-2020 12:20pm BST
Few Clouds
Few Clouds
 Wind from W
Wind: W 24 mph , 39 km/h, Gust: 36 mph , 57 km/h
Temperature: 13°C
Dew Point: 5°C
Humidity: 59%
Barometer: 1008 hPa
Clouds: Few Clouds
Visibility: 6 miles , 10 km
Cloud details: Few Clouds 884 m
2020/04/02 11:20 EGNV 021120Z 28021G31KT 9999 FEW029 13/05 Q1008
EGCC - Manchester Intl, United Kingdom
Distance from station: WSW 71mi, 114km
Updated: Thu, 02-Apr-2020 12:20pm BST
Overcast
Overcast
 Wind from W
Wind: W 20 mph , 31 km/h
Temperature: 10°C
Wind Chill: 7°C
Dew Point: 7°C
Humidity: 82%
Barometer: 1013 hPa
Clouds: Overcast
Visibility: 6 miles , 10 km
Cloud details: Overcast 427 m
2020/04/02 11:20 EGCC 021120Z AUTO 28017KT 9999 OVC014 10/07 Q1013

Metar display script from Saratoga-Weather.org

Data updates at regular intervals.